sensor_id;sensor_type;location;lat;lon;timestamp;temperature;humidity
75824;DHT22;64457;51.976;9.834;2024-03-06T00:00:06;10.10;96.10
75824;DHT22;64457;51.976;9.834;2024-03-06T00:02:36;10.20;96.40
75824;DHT22;64457;51.976;9.834;2024-03-06T00:05:05;10.20;96.50
75824;DHT22;64457;51.976;9.834;2024-03-06T00:07:34;10.30;96.50
75824;DHT22;64457;51.976;9.834;2024-03-06T00:10:01;10.40;96.10
75824;DHT22;64457;51.976;9.834;2024-03-06T00:12:32;10.50;96.20
75824;DHT22;64457;51.976;9.834;2024-03-06T00:14:59;10.40;96.10
75824;DHT22;64457;51.976;9.834;2024-03-06T00:17:29;10.10;96.30
75824;DHT22;64457;51.976;9.834;2024-03-06T00:19:57;10.00;96.30
75824;DHT22;64457;51.976;9.834;2024-03-06T00:22:24;10.00;96.50
75824;DHT22;64457;51.976;9.834;2024-03-06T00:24:51;10.10;96.50
75824;DHT22;64457;51.976;9.834;2024-03-06T00:27:18;10.20;95.60
75824;DHT22;64457;51.976;9.834;2024-03-06T00:29:46;10.20;95.90
75824;DHT22;64457;51.976;9.834;2024-03-06T00:32:13;10.00;95.40
75824;DHT22;64457;51.976;9.834;2024-03-06T00:34:42;9.70;96.30
75824;DHT22;64457;51.976;9.834;2024-03-06T00:37:10;9.60;96.70
75824;DHT22;64457;51.976;9.834;2024-03-06T00:39:37;9.50;96.70
75824;DHT22;64457;51.976;9.834;2024-03-06T00:42:04;9.60;96.80
75824;DHT22;64457;51.976;9.834;2024-03-06T00:44:33;9.80;96.20
75824;DHT22;64457;51.976;9.834;2024-03-06T00:47:00;10.00;95.90
75824;DHT22;64457;51.976;9.834;2024-03-06T00:49:28;10.10;95.90
75824;DHT22;64457;51.976;9.834;2024-03-06T00:52:05;10.20;95.60
75824;DHT22;64457;51.976;9.834;2024-03-06T00:54:32;10.20;95.40
75824;DHT22;64457;51.976;9.834;2024-03-06T00:57:00;9.90;96.50
75824;DHT22;64457;51.976;9.834;2024-03-06T00:59:28;9.90;96.60
75824;DHT22;64457;51.976;9.834;2024-03-06T01:01:55;10.00;96.00
75824;DHT22;64457;51.976;9.834;2024-03-06T01:04:23;10.10;95.70
75824;DHT22;64457;51.976;9.834;2024-03-06T01:06:50;10.20;95.60
75824;DHT22;64457;51.976;9.834;2024-03-06T01:09:19;9.90;95.20
75824;DHT22;64457;51.976;9.834;2024-03-06T01:11:46;9.70;96.10
75824;DHT22;64457;51.976;9.834;2024-03-06T01:14:14;9.70;96.10
75824;DHT22;64457;51.976;9.834;2024-03-06T01:16:42;9.50;96.50
75824;DHT22;64457;51.976;9.834;2024-03-06T01:19:09;9.70;96.40
75824;DHT22;64457;51.976;9.834;2024-03-06T01:21:38;9.70;96.00
75824;DHT22;64457;51.976;9.834;2024-03-06T01:24:05;10.00;95.60
75824;DHT22;64457;51.976;9.834;2024-03-06T01:26:34;9.90;95.80
75824;DHT22;64457;51.976;9.834;2024-03-06T01:29:06;10.20;95.30
75824;DHT22;64457;51.976;9.834;2024-03-06T01:31:33;9.90;95.70
75824;DHT22;64457;51.976;9.834;2024-03-06T01:34:01;10.00;95.50
75824;DHT22;64457;51.976;9.834;2024-03-06T01:36:28;10.10;95.50
75824;DHT22;64457;51.976;9.834;2024-03-06T01:38:55;10.10;94.90
75824;DHT22;64457;51.976;9.834;2024-03-06T01:41:22;10.10;95.10
75824;DHT22;64457;51.976;9.834;2024-03-06T01:43:52;9.90;95.50
75824;DHT22;64457;51.976;9.834;2024-03-06T01:46:19;9.80;95.90
75824;DHT22;64457;51.976;9.834;2024-03-06T01:48:47;9.90;95.90
75824;DHT22;64457;51.976;9.834;2024-03-06T01:51:16;10.00;95.30
75824;DHT22;64457;51.976;9.834;2024-03-06T01:53:44;10.10;95.30
75824;DHT22;64457;51.976;9.834;2024-03-06T01:56:12;10.20;95.10
75824;DHT22;64457;51.976;9.834;2024-03-06T01:58:47;10.30;95.10
75824;DHT22;64457;51.976;9.834;2024-03-06T02:01:16;10.30;95.30
75824;DHT22;64457;51.976;9.834;2024-03-06T02:03:45;10.40;94.80
75824;DHT22;64457;51.976;9.834;2024-03-06T02:06:14;10.40;94.80
75824;DHT22;64457;51.976;9.834;2024-03-06T02:08:45;10.40;94.60
75824;DHT22;64457;51.976;9.834;2024-03-06T02:11:12;10.50;94.60
75824;DHT22;64457;51.976;9.834;2024-03-06T02:13:42;10.50;95.00
75824;DHT22;64457;51.976;9.834;2024-03-06T02:16:12;10.50;94.60
75824;DHT22;64457;51.976;9.834;2024-03-06T02:18:52;10.50;94.60
75824;DHT22;64457;51.976;9.834;2024-03-06T02:21:25;10.50;94.80
75824;DHT22;64457;51.976;9.834;2024-03-06T02:23:52;10.40;94.20
75824;DHT22;64457;51.976;9.834;2024-03-06T02:26:20;10.40;94.70
75824;DHT22;64457;51.976;9.834;2024-03-06T02:28:49;10.40;95.00
75824;DHT22;64457;51.976;9.834;2024-03-06T02:31:17;10.40;94.80
75824;DHT22;64457;51.976;9.834;2024-03-06T02:33:45;10.40;94.60
75824;DHT22;64457;51.976;9.834;2024-03-06T02:36:13;10.30;94.20
75824;DHT22;64457;51.976;9.834;2024-03-06T02:38:43;10.30;94.30
75824;DHT22;64457;51.976;9.834;2024-03-06T02:41:11;10.20;94.70
75824;DHT22;64457;51.976;9.834;2024-03-06T02:43:41;10.30;94.70
75824;DHT22;64457;51.976;9.834;2024-03-06T02:46:08;10.30;94.50
75824;DHT22;64457;51.976;9.834;2024-03-06T02:48:35;10.30;94.90
75824;DHT22;64457;51.976;9.834;2024-03-06T02:51:03;10.30;94.70
75824;DHT22;64457;51.976;9.834;2024-03-06T02:53:30;10.20;94.60
75824;DHT22;64457;51.976;9.834;2024-03-06T02:55:59;10.30;94.70
75824;DHT22;64457;51.976;9.834;2024-03-06T02:58:26;10.40;94.90
75824;DHT22;64457;51.976;9.834;2024-03-06T03:00:57;10.40;94.40
75824;DHT22;64457;51.976;9.834;2024-03-06T03:03:24;10.40;94.50
75824;DHT22;64457;51.976;9.834;2024-03-06T03:05:51;10.50;94.10
75824;DHT22;64457;51.976;9.834;2024-03-06T03:08:19;10.40;94.10
75824;DHT22;64457;51.976;9.834;2024-03-06T03:10:46;10.30;94.10
75824;DHT22;64457;51.976;9.834;2024-03-06T03:13:15;10.20;94.30
75824;DHT22;64457;51.976;9.834;2024-03-06T03:15:42;10.20;94.80
75824;DHT22;64457;51.976;9.834;2024-03-06T03:18:09;10.20;94.80
75824;DHT22;64457;51.976;9.834;2024-03-06T03:20:37;10.30;94.60
75824;DHT22;64457;51.976;9.834;2024-03-06T03:23:04;10.30;94.70
75824;DHT22;64457;51.976;9.834;2024-03-06T03:25:32;10.30;94.80
75824;DHT22;64457;51.976;9.834;2024-03-06T03:28:00;10.30;94.50
75824;DHT22;64457;51.976;9.834;2024-03-06T03:30:29;10.30;94.70
75824;DHT22;64457;51.976;9.834;2024-03-06T03:32:57;10.30;94.60
75824;DHT22;64457;51.976;9.834;2024-03-06T03:35:25;10.40;94.50
75824;DHT22;64457;51.976;9.834;2024-03-06T03:37:52;10.40;94.50
75824;DHT22;64457;51.976;9.834;2024-03-06T03:40:21;10.50;94.40
75824;DHT22;64457;51.976;9.834;2024-03-06T03:42:48;10.50;94.50
75824;DHT22;64457;51.976;9.834;2024-03-06T03:45:16;10.50;94.50
75824;DHT22;64457;51.976;9.834;2024-03-06T03:47:45;10.50;94.60
75824;DHT22;64457;51.976;9.834;2024-03-06T03:50:12;10.50;94.60
75824;DHT22;64457;51.976;9.834;2024-03-06T03:52:39;10.60;94.70
75824;DHT22;64457;51.976;9.834;2024-03-06T03:55:08;10.60;94.60
75824;DHT22;64457;51.976;9.834;2024-03-06T03:57:35;10.40;94.90
75824;DHT22;64457;51.976;9.834;2024-03-06T04:00:06;10.30;95.10
75824;DHT22;64457;51.976;9.834;2024-03-06T04:02:36;10.30;95.30
75824;DHT22;64457;51.976;9.834;2024-03-06T04:05:06;10.20;95.40
75824;DHT22;64457;51.976;9.834;2024-03-06T04:07:35;10.10;95.50
75824;DHT22;64457;51.976;9.834;2024-03-06T04:10:03;10.20;95.60
75824;DHT22;64457;51.976;9.834;2024-03-06T04:12:31;10.00;95.70
75824;DHT22;64457;51.976;9.834;2024-03-06T04:14:58;10.00;95.90
75824;DHT22;64457;51.976;9.834;2024-03-06T04:17:25;10.10;96.00
75824;DHT22;64457;51.976;9.834;2024-03-06T04:19:53;10.20;95.90
75824;DHT22;64457;51.976;9.834;2024-03-06T04:22:22;10.20;95.40
75824;DHT22;64457;51.976;9.834;2024-03-06T04:24:50;10.30;95.50
75824;DHT22;64457;51.976;9.834;2024-03-06T04:27:17;10.30;95.10
75824;DHT22;64457;51.976;9.834;2024-03-06T04:29:44;10.40;94.90
75824;DHT22;64457;51.976;9.834;2024-03-06T04:32:11;10.20;95.00
75824;DHT22;64457;51.976;9.834;2024-03-06T04:34:39;10.20;95.30
75824;DHT22;64457;51.976;9.834;2024-03-06T04:37:06;10.30;95.20
75824;DHT22;64457;51.976;9.834;2024-03-06T04:39:35;10.40;95.10
75824;DHT22;64457;51.976;9.834;2024-03-06T04:42:04;10.40;95.00
75824;DHT22;64457;51.976;9.834;2024-03-06T04:44:33;10.40;95.00
75824;DHT22;64457;51.976;9.834;2024-03-06T04:47:01;10.40;95.00
75824;DHT22;64457;51.976;9.834;2024-03-06T04:49:28;10.40;95.00
75824;DHT22;64457;51.976;9.834;2024-03-06T04:52:00;10.50;95.00
75824;DHT22;64457;51.976;9.834;2024-03-06T04:54:28;10.50;94.70
75824;DHT22;64457;51.976;9.834;2024-03-06T04:56:57;10.50;94.20
75824;DHT22;64457;51.976;9.834;2024-03-06T04:59:25;10.50;94.20
75824;DHT22;64457;51.976;9.834;2024-03-06T05:01:54;10.40;94.40
75824;DHT22;64457;51.976;9.834;2024-03-06T05:04:22;10.40;94.30
75824;DHT22;64457;51.976;9.834;2024-03-06T05:06:49;10.40;95.30
75824;DHT22;64457;51.976;9.834;2024-03-06T05:09:16;10.30;95.30
75824;DHT22;64457;51.976;9.834;2024-03-06T05:11:45;10.20;95.30
75824;DHT22;64457;51.976;9.834;2024-03-06T05:14:17;10.20;95.40
75824;DHT22;64457;51.976;9.834;2024-03-06T05:16:44;10.20;95.30
75824;DHT22;64457;51.976;9.834;2024-03-06T05:19:12;10.30;95.30
75824;DHT22;64457;51.976;9.834;2024-03-06T05:21:39;10.40;95.30
75824;DHT22;64457;51.976;9.834;2024-03-06T05:24:07;10.50;95.00
75824;DHT22;64457;51.976;9.834;2024-03-06T05:26:34;10.40;95.00
75824;DHT22;64457;51.976;9.834;2024-03-06T05:29:04;10.40;95.00
75824;DHT22;64457;51.976;9.834;2024-03-06T05:31:33;10.20;94.90
75824;DHT22;64457;51.976;9.834;2024-03-06T05:34:01;10.50;95.00
75824;DHT22;64457;51.976;9.834;2024-03-06T05:36:30;10.50;94.90
75824;DHT22;64457;51.976;9.834;2024-03-06T05:39:08;10.50;94.90
75824;DHT22;64457;51.976;9.834;2024-03-06T05:41:38;10.40;94.90
75824;DHT22;64457;51.976;9.834;2024-03-06T05:44:07;10.50;95.00
75824;DHT22;64457;51.976;9.834;2024-03-06T05:46:35;10.50;95.20
75824;DHT22;64457;51.976;9.834;2024-03-06T05:49:03;10.40;95.20
75824;DHT22;64457;51.976;9.834;2024-03-06T05:51:30;10.30;95.40
75824;DHT22;64457;51.976;9.834;2024-03-06T05:53:58;10.20;95.60
75824;DHT22;64457;51.976;9.834;2024-03-06T05:56:35;10.20;95.90
75824;DHT22;64457;51.976;9.834;2024-03-06T05:59:02;10.10;96.00
75824;DHT22;64457;51.976;9.834;2024-03-06T06:01:30;10.20;96.00
75824;DHT22;64457;51.976;9.834;2024-03-06T06:03:59;10.30;95.90
75824;DHT22;64457;51.976;9.834;2024-03-06T06:06:27;10.30;96.30
75824;DHT22;64457;51.976;9.834;2024-03-06T06:08:55;10.40;96.00
75824;DHT22;64457;51.976;9.834;2024-03-06T06:11:23;10.40;95.70
75824;DHT22;64457;51.976;9.834;2024-03-06T06:13:53;10.30;95.90
75824;DHT22;64457;51.976;9.834;2024-03-06T06:16:20;10.40;95.70
75824;DHT22;64457;51.976;9.834;2024-03-06T06:18:48;10.40;95.90
75824;DHT22;64457;51.976;9.834;2024-03-06T06:21:16;10.40;95.70
75824;DHT22;64457;51.976;9.834;2024-03-06T06:23:44;10.40;95.90
75824;DHT22;64457;51.976;9.834;2024-03-06T06:26:12;10.40;95.80
75824;DHT22;64457;51.976;9.834;2024-03-06T06:28:41;10.50;95.70
75824;DHT22;64457;51.976;9.834;2024-03-06T06:31:08;10.60;95.60
75824;DHT22;64457;51.976;9.834;2024-03-06T06:33:36;10.60;95.20
75824;DHT22;64457;51.976;9.834;2024-03-06T06:36:03;10.50;95.10
75824;DHT22;64457;51.976;9.834;2024-03-06T06:38:32;10.60;95.30
75824;DHT22;64457;51.976;9.834;2024-03-06T06:40:59;10.60;95.40
75824;DHT22;64457;51.976;9.834;2024-03-06T06:43:27;10.70;95.30
75824;DHT22;64457;51.976;9.834;2024-03-06T06:45:57;10.70;94.90
75824;DHT22;64457;51.976;9.834;2024-03-06T06:48:24;10.70;94.70
75824;DHT22;64457;51.976;9.834;2024-03-06T06:50:52;10.60;94.70
75824;DHT22;64457;51.976;9.834;2024-03-06T06:53:20;10.60;94.80
75824;DHT22;64457;51.976;9.834;2024-03-06T06:55:48;10.60;94.80
75824;DHT22;64457;51.976;9.834;2024-03-06T06:58:16;10.60;94.90
75824;DHT22;64457;51.976;9.834;2024-03-06T07:00:43;10.80;94.90
75824;DHT22;64457;51.976;9.834;2024-03-06T07:03:11;10.80;94.80
75824;DHT22;64457;51.976;9.834;2024-03-06T07:05:38;10.80;94.40
75824;DHT22;64457;51.976;9.834;2024-03-06T07:08:10;10.80;94.10
75824;DHT22;64457;51.976;9.834;2024-03-06T07:10:37;10.80;94.10
75824;DHT22;64457;51.976;9.834;2024-03-06T07:13:06;10.80;94.30
75824;DHT22;64457;51.976;9.834;2024-03-06T07:15:33;10.80;94.10
75824;DHT22;64457;51.976;9.834;2024-03-06T07:18:00;10.80;94.40
75824;DHT22;64457;51.976;9.834;2024-03-06T07:20:28;10.70;94.20
75824;DHT22;64457;51.976;9.834;2024-03-06T07:22:57;10.60;94.40
75824;DHT22;64457;51.976;9.834;2024-03-06T07:25:24;10.50;94.50
75824;DHT22;64457;51.976;9.834;2024-03-06T07:27:52;10.40;94.50
75824;DHT22;64457;51.976;9.834;2024-03-06T07:30:21;10.20;94.80
75824;DHT22;64457;51.976;9.834;2024-03-06T07:32:49;10.30;95.00
75824;DHT22;64457;51.976;9.834;2024-03-06T07:35:16;10.40;95.00
75824;DHT22;64457;51.976;9.834;2024-03-06T07:37:44;10.50;94.70
75824;DHT22;64457;51.976;9.834;2024-03-06T07:40:12;10.60;94.50
75824;DHT22;64457;51.976;9.834;2024-03-06T07:42:40;10.70;94.40
75824;DHT22;64457;51.976;9.834;2024-03-06T07:45:07;10.70;94.50
75824;DHT22;64457;51.976;9.834;2024-03-06T07:47:37;10.80;94.50
75824;DHT22;64457;51.976;9.834;2024-03-06T07:50:04;10.80;94.10
75824;DHT22;64457;51.976;9.834;2024-03-06T07:52:35;10.80;94.40
75824;DHT22;64457;51.976;9.834;2024-03-06T07:55:13;10.90;94.50
75824;DHT22;64457;51.976;9.834;2024-03-06T07:57:45;11.00;94.10
75824;DHT22;64457;51.976;9.834;2024-03-06T08:00:14;10.90;93.80
75824;DHT22;64457;51.976;9.834;2024-03-06T08:02:46;10.60;94.10
75824;DHT22;64457;51.976;9.834;2024-03-06T08:05:18;10.70;94.40
75824;DHT22;64457;51.976;9.834;2024-03-06T08:07:47;10.80;94.20
75824;DHT22;64457;51.976;9.834;2024-03-06T08:10:15;11.00;94.10
75824;DHT22;64457;51.976;9.834;2024-03-06T08:12:45;11.00;94.00
75824;DHT22;64457;51.976;9.834;2024-03-06T08:15:14;11.00;94.10
75824;DHT22;64457;51.976;9.834;2024-03-06T08:17:43;11.00;93.80
75824;DHT22;64457;51.976;9.834;2024-03-06T08:20:12;11.20;94.00
75824;DHT22;64457;51.976;9.834;2024-03-06T08:22:40;11.10;93.70
75824;DHT22;64457;51.976;9.834;2024-03-06T08:25:09;11.20;93.60
75824;DHT22;64457;51.976;9.834;2024-03-06T08:27:38;11.30;93.70
75824;DHT22;64457;51.976;9.834;2024-03-06T08:30:07;11.30;93.50
75824;DHT22;64457;51.976;9.834;2024-03-06T08:32:36;11.20;93.40
75824;DHT22;64457;51.976;9.834;2024-03-06T08:35:04;11.20;93.90
75824;DHT22;64457;51.976;9.834;2024-03-06T08:37:34;11.20;93.70
75824;DHT22;64457;51.976;9.834;2024-03-06T08:40:01;11.30;93.30
75824;DHT22;64457;51.976;9.834;2024-03-06T08:42:29;11.40;93.60
75824;DHT22;64457;51.976;9.834;2024-03-06T08:44:56;11.50;93.50
75824;DHT22;64457;51.976;9.834;2024-03-06T08:47:24;11.50;93.40
75824;DHT22;64457;51.976;9.834;2024-03-06T08:49:51;11.50;93.50
75824;DHT22;64457;51.976;9.834;2024-03-06T08:52:20;11.60;93.50
75824;DHT22;64457;51.976;9.834;2024-03-06T08:54:49;11.70;93.20
75824;DHT22;64457;51.976;9.834;2024-03-06T08:57:16;11.90;93.10
75824;DHT22;64457;51.976;9.834;2024-03-06T08:59:45;12.00;93.50
75824;DHT22;64457;51.976;9.834;2024-03-06T09:02:14;12.00;93.10
75824;DHT22;64457;51.976;9.834;2024-03-06T09:04:42;12.10;93.10
75824;DHT22;64457;51.976;9.834;2024-03-06T09:07:10;12.00;93.00
75824;DHT22;64457;51.976;9.834;2024-03-06T09:09:38;12.00;93.10
75824;DHT22;64457;51.976;9.834;2024-03-06T09:12:08;12.10;93.30
75824;DHT22;64457;51.976;9.834;2024-03-06T09:14:36;12.10;93.30
75824;DHT22;64457;51.976;9.834;2024-03-06T09:17:04;12.10;93.20
75824;DHT22;64457;51.976;9.834;2024-03-06T09:19:32;12.00;93.10
75824;DHT22;64457;51.976;9.834;2024-03-06T09:22:00;11.90;93.00
75824;DHT22;64457;51.976;9.834;2024-03-06T09:24:28;11.70;92.80
75824;DHT22;64457;51.976;9.834;2024-03-06T09:26:56;11.70;93.00
75824;DHT22;64457;51.976;9.834;2024-03-06T09:29:28;11.70;93.00
75824;DHT22;64457;51.976;9.834;2024-03-06T09:31:56;11.80;93.20
75824;DHT22;64457;51.976;9.834;2024-03-06T09:34:23;12.00;93.20
75824;DHT22;64457;51.976;9.834;2024-03-06T09:36:51;12.20;93.30
75824;DHT22;64457;51.976;9.834;2024-03-06T09:39:19;12.00;92.70
75824;DHT22;64457;51.976;9.834;2024-03-06T09:41:49;11.90;92.70
75824;DHT22;64457;51.976;9.834;2024-03-06T09:44:17;11.80;92.70
75824;DHT22;64457;51.976;9.834;2024-03-06T09:46:48;11.60;93.10
75824;DHT22;64457;51.976;9.834;2024-03-06T09:49:18;11.70;93.40
75824;DHT22;64457;51.976;9.834;2024-03-06T09:51:47;11.80;93.10
75824;DHT22;64457;51.976;9.834;2024-03-06T09:54:16;11.60;93.00
75824;DHT22;64457;51.976;9.834;2024-03-06T09:56:44;11.60;93.20
75824;DHT22;64457;51.976;9.834;2024-03-06T09:59:12;11.70;93.20
75824;DHT22;64457;51.976;9.834;2024-03-06T10:01:45;11.60;93.10
75824;DHT22;64457;51.976;9.834;2024-03-06T10:04:18;11.80;93.00
75824;DHT22;64457;51.976;9.834;2024-03-06T10:06:46;12.10;93.20
75824;DHT22;64457;51.976;9.834;2024-03-06T10:09:17;12.40;92.70
75824;DHT22;64457;51.976;9.834;2024-03-06T10:11:45;12.30;92.50
75824;DHT22;64457;51.976;9.834;2024-03-06T10:14:13;12.40;93.00
75824;DHT22;64457;51.976;9.834;2024-03-06T10:16:53;12.40;92.50
75824;DHT22;64457;51.976;9.834;2024-03-06T10:19:23;12.30;92.80
75824;DHT22;64457;51.976;9.834;2024-03-06T10:21:53;12.40;92.30
75824;DHT22;64457;51.976;9.834;2024-03-06T10:24:23;12.10;92.30
75824;DHT22;64457;51.976;9.834;2024-03-06T10:26:52;12.40;92.40
75824;DHT22;64457;51.976;9.834;2024-03-06T10:29:22;12.60;92.40
75824;DHT22;64457;51.976;9.834;2024-03-06T10:31:53;12.70;91.60
75824;DHT22;64457;51.976;9.834;2024-03-06T10:34:22;12.60;91.60
75824;DHT22;64457;51.976;9.834;2024-03-06T10:36:54;12.50;91.80
75824;DHT22;64457;51.976;9.834;2024-03-06T10:39:22;12.60;92.60
75824;DHT22;64457;51.976;9.834;2024-03-06T10:41:52;12.60;91.90
75824;DHT22;64457;51.976;9.834;2024-03-06T10:44:22;12.50;92.20
75824;DHT22;64457;51.976;9.834;2024-03-06T10:46:58;12.60;92.40
75824;DHT22;64457;51.976;9.834;2024-03-06T10:49:27;12.80;92.50
75824;DHT22;64457;51.976;9.834;2024-03-06T10:51:57;12.80;92.00
75824;DHT22;64457;51.976;9.834;2024-03-06T10:54:27;12.70;91.70
75824;DHT22;64457;51.976;9.834;2024-03-06T10:56:56;12.60;92.30
75824;DHT22;64457;51.976;9.834;2024-03-06T10:59:25;12.40;92.30
75824;DHT22;64457;51.976;9.834;2024-03-06T11:01:56;12.40;92.40
75824;DHT22;64457;51.976;9.834;2024-03-06T11:04:25;12.50;92.60
75824;DHT22;64457;51.976;9.834;2024-03-06T11:06:54;12.60;92.50
75824;DHT22;64457;51.976;9.834;2024-03-06T11:09:22;12.70;92.70
75824;DHT22;64457;51.976;9.834;2024-03-06T11:11:51;12.70;91.70
75824;DHT22;64457;51.976;9.834;2024-03-06T11:14:21;13.00;92.10
75824;DHT22;64457;51.976;9.834;2024-03-06T11:17:02;12.90;91.40
75824;DHT22;64457;51.976;9.834;2024-03-06T11:19:31;12.90;91.50
75824;DHT22;64457;51.976;9.834;2024-03-06T11:21:59;13.10;91.60
75824;DHT22;64457;51.976;9.834;2024-03-06T11:24:33;13.10;91.30
75824;DHT22;64457;51.976;9.834;2024-03-06T11:27:01;13.20;91.50
75824;DHT22;64457;51.976;9.834;2024-03-06T11:30:03;13.40;91.00
75824;DHT22;64457;51.976;9.834;2024-03-06T11:32:38;13.10;90.80
75824;DHT22;64457;51.976;9.834;2024-03-06T11:35:24;12.70;91.60
75824;DHT22;64457;51.976;9.834;2024-03-06T11:37:52;12.80;91.40
75824;DHT22;64457;51.976;9.834;2024-03-06T11:40:22;12.60;91.10
75824;DHT22;64457;51.976;9.834;2024-03-06T11:42:51;12.30;91.60
75824;DHT22;64457;51.976;9.834;2024-03-06T11:45:19;12.30;92.10
75824;DHT22;64457;51.976;9.834;2024-03-06T11:47:59;12.30;92.50
75824;DHT22;64457;51.976;9.834;2024-03-06T11:50:28;12.50;92.00
75824;DHT22;64457;51.976;9.834;2024-03-06T11:52:57;12.80;92.10
75824;DHT22;64457;51.976;9.834;2024-03-06T11:55:24;13.00;91.10
75824;DHT22;64457;51.976;9.834;2024-03-06T11:57:52;13.10;91.20
75824;DHT22;64457;51.976;9.834;2024-03-06T12:00:21;13.30;91.70
75824;DHT22;64457;51.976;9.834;2024-03-06T12:02:50;13.40;91.30
75824;DHT22;64457;51.976;9.834;2024-03-06T12:05:19;13.50;91.40
75824;DHT22;64457;51.976;9.834;2024-03-06T12:07:47;13.80;90.80
75824;DHT22;64457;51.976;9.834;2024-03-06T12:10:15;13.60;90.30
75824;DHT22;64457;51.976;9.834;2024-03-06T12:12:43;13.70;89.50
75824;DHT22;64457;51.976;9.834;2024-03-06T12:15:12;13.50;90.40
75824;DHT22;64457;51.976;9.834;2024-03-06T12:17:44;13.70;91.00
75824;DHT22;64457;51.976;9.834;2024-03-06T12:20:13;14.20;90.30
75824;DHT22;64457;51.976;9.834;2024-03-06T12:22:48;13.90;88.80
75824;DHT22;64457;51.976;9.834;2024-03-06T12:25:19;14.10;89.30
75824;DHT22;64457;51.976;9.834;2024-03-06T12:27:48;14.10;89.00
75824;DHT22;64457;51.976;9.834;2024-03-06T12:30:17;14.00;89.30
75824;DHT22;64457;51.976;9.834;2024-03-06T12:32:44;14.50;90.50
75824;DHT22;64457;51.976;9.834;2024-03-06T12:35:12;14.90;87.90
75824;DHT22;64457;51.976;9.834;2024-03-06T12:37:39;15.10;87.30
75824;DHT22;64457;51.976;9.834;2024-03-06T12:40:10;15.10;86.50
75824;DHT22;64457;51.976;9.834;2024-03-06T12:42:39;14.90;86.60
75824;DHT22;64457;51.976;9.834;2024-03-06T12:45:07;15.00;86.00
75824;DHT22;64457;51.976;9.834;2024-03-06T12:47:36;15.10;86.50
75824;DHT22;64457;51.976;9.834;2024-03-06T12:50:03;15.00;87.30
75824;DHT22;64457;51.976;9.834;2024-03-06T12:52:33;15.10;87.50
75824;DHT22;64457;51.976;9.834;2024-03-06T12:55:01;15.20;87.70
75824;DHT22;64457;51.976;9.834;2024-03-06T12:57:32;15.40;85.90
75824;DHT22;64457;51.976;9.834;2024-03-06T12:59:59;15.30;86.70
75824;DHT22;64457;51.976;9.834;2024-03-06T13:02:27;14.90;86.30
75824;DHT22;64457;51.976;9.834;2024-03-06T13:04:54;14.80;87.00
75824;DHT22;64457;51.976;9.834;2024-03-06T13:07:21;15.00;87.20
75824;DHT22;64457;51.976;9.834;2024-03-06T13:09:49;15.10;87.10
75824;DHT22;64457;51.976;9.834;2024-03-06T13:12:16;15.00;86.80
75824;DHT22;64457;51.976;9.834;2024-03-06T13:14:45;15.10;85.60
75824;DHT22;64457;51.976;9.834;2024-03-06T13:17:12;15.20;84.80
75824;DHT22;64457;51.976;9.834;2024-03-06T13:19:39;14.70;84.90
75824;DHT22;64457;51.976;9.834;2024-03-06T13:22:07;14.40;86.00
75824;DHT22;64457;51.976;9.834;2024-03-06T13:24:34;14.50;85.40
75824;DHT22;64457;51.976;9.834;2024-03-06T13:27:02;14.50;86.10
75824;DHT22;64457;51.976;9.834;2024-03-06T13:29:29;14.70;86.20
75824;DHT22;64457;51.976;9.834;2024-03-06T13:31:58;14.80;86.70
75824;DHT22;64457;51.976;9.834;2024-03-06T13:34:25;15.00;87.10
75824;DHT22;64457;51.976;9.834;2024-03-06T13:36:52;15.20;87.90
75824;DHT22;64457;51.976;9.834;2024-03-06T13:39:20;15.20;87.30
75824;DHT22;64457;51.976;9.834;2024-03-06T13:41:48;15.00;85.70
75824;DHT22;64457;51.976;9.834;2024-03-06T13:44:15;15.00;87.70
75824;DHT22;64457;51.976;9.834;2024-03-06T13:46:42;14.90;87.70
75824;DHT22;64457;51.976;9.834;2024-03-06T13:49:37;15.00;88.40
75824;DHT22;64457;51.976;9.834;2024-03-06T13:52:07;15.00;87.90
75824;DHT22;64457;51.976;9.834;2024-03-06T13:54:37;15.20;87.80
75824;DHT22;64457;51.976;9.834;2024-03-06T13:57:06;15.40;87.40
75824;DHT22;64457;51.976;9.834;2024-03-06T13:59:34;15.30;87.90
75824;DHT22;64457;51.976;9.834;2024-03-06T14:02:03;15.20;87.90
75824;DHT22;64457;51.976;9.834;2024-03-06T14:04:32;15.50;87.20
75824;DHT22;64457;51.976;9.834;2024-03-06T14:06:59;15.80;87.40
75824;DHT22;64457;51.976;9.834;2024-03-06T14:09:27;16.10;86.20
75824;DHT22;64457;51.976;9.834;2024-03-06T14:11:55;16.20;85.80
75824;DHT22;64457;51.976;9.834;2024-03-06T14:14:23;16.10;85.00
75824;DHT22;64457;51.976;9.834;2024-03-06T14:16:50;16.00;85.60
75824;DHT22;64457;51.976;9.834;2024-03-06T14:19:18;16.00;84.10
75824;DHT22;64457;51.976;9.834;2024-03-06T14:21:46;16.10;85.30
75824;DHT22;64457;51.976;9.834;2024-03-06T14:24:14;15.60;86.30
75824;DHT22;64457;51.976;9.834;2024-03-06T14:26:41;15.20;84.70
75824;DHT22;64457;51.976;9.834;2024-03-06T14:29:09;14.90;84.80
75824;DHT22;64457;51.976;9.834;2024-03-06T14:31:36;14.50;83.90
75824;DHT22;64457;51.976;9.834;2024-03-06T14:34:06;14.30;87.20
75824;DHT22;64457;51.976;9.834;2024-03-06T14:36:34;14.10;87.80
75824;DHT22;64457;51.976;9.834;2024-03-06T14:39:03;14.10;87.80
75824;DHT22;64457;51.976;9.834;2024-03-06T14:41:30;14.30;87.50
75824;DHT22;64457;51.976;9.834;2024-03-06T14:43:58;14.20;87.90
75824;DHT22;64457;51.976;9.834;2024-03-06T14:46:26;14.60;89.30
75824;DHT22;64457;51.976;9.834;2024-03-06T14:48:54;14.90;87.70
75824;DHT22;64457;51.976;9.834;2024-03-06T14:51:22;15.20;85.30
75824;DHT22;64457;51.976;9.834;2024-03-06T14:53:49;15.20;83.60
75824;DHT22;64457;51.976;9.834;2024-03-06T14:56:18;15.30;84.80
75824;DHT22;64457;51.976;9.834;2024-03-06T14:58:47;15.30;83.40
75824;DHT22;64457;51.976;9.834;2024-03-06T15:01:14;15.10;83.50
75824;DHT22;64457;51.976;9.834;2024-03-06T15:03:42;15.00;84.30
75824;DHT22;64457;51.976;9.834;2024-03-06T15:06:10;14.80;84.70
75824;DHT22;64457;51.976;9.834;2024-03-06T15:08:38;14.40;85.60
75824;DHT22;64457;51.976;9.834;2024-03-06T15:11:06;14.20;86.20
75824;DHT22;64457;51.976;9.834;2024-03-06T15:13:35;14.10;86.10
75824;DHT22;64457;51.976;9.834;2024-03-06T15:16:02;14.00;84.90
75824;DHT22;64457;51.976;9.834;2024-03-06T15:18:31;13.90;85.00
75824;DHT22;64457;51.976;9.834;2024-03-06T15:20:59;14.00;85.50
75824;DHT22;64457;51.976;9.834;2024-03-06T15:23:26;14.00;83.30
75824;DHT22;64457;51.976;9.834;2024-03-06T15:25:54;13.70;84.10
75824;DHT22;64457;51.976;9.834;2024-03-06T15:28:22;13.60;84.30
75824;DHT22;64457;51.976;9.834;2024-03-06T15:30:51;13.30;84.20
75824;DHT22;64457;51.976;9.834;2024-03-06T15:33:19;13.30;84.60
75824;DHT22;64457;51.976;9.834;2024-03-06T15:35:46;13.10;83.90
75824;DHT22;64457;51.976;9.834;2024-03-06T15:38:13;12.90;85.50
75824;DHT22;64457;51.976;9.834;2024-03-06T15:40:41;13.10;85.10